createdAt,value
2023-04-08T00:00:46.442Z,98234.94
2023-04-08T00:02:18.086Z,98235.44
2023-04-08T00:03:50.259Z,98230.81
2023-04-08T00:05:21.988Z,98236.47
2023-04-08T00:06:53.530Z,98229.44
2023-04-08T00:08:25.283Z,98228.31
2023-04-08T00:09:56.848Z,98227.72
2023-04-08T00:11:28.470Z,98237.09
2023-04-08T00:13:01.085Z,98235.31
2023-04-08T00:14:32.874Z,98235.75
2023-04-08T00:16:04.551Z,98237.94
2023-04-08T00:17:36.401Z,98241.09
2023-04-08T00:19:08.036Z,98237.78
2023-04-08T00:20:39.650Z,98245.34
2023-04-08T00:22:11.639Z,98243.28
2023-04-08T00:23:43.595Z,98245.06
2023-04-08T00:25:15.360Z,98248.34
2023-04-08T00:26:46.962Z,98247.41
2023-04-08T00:28:18.535Z,98250.16
2023-04-08T00:29:50.058Z,98249.50
2023-04-08T00:31:21.999Z,98251.69
2023-04-08T00:32:53.936Z,98253.72
2023-04-08T00:34:25.630Z,98254.81
2023-04-08T00:35:58.505Z,98260.75
2023-04-08T00:37:31.395Z,98253.03
2023-04-08T00:39:04.254Z,98258.34
2023-04-08T00:40:35.856Z,98259.78
2023-04-08T00:42:07.534Z,98262.13
2023-04-08T00:43:39.162Z,98253.59
2023-04-08T00:45:11.743Z,98256.88
2023-04-08T00:46:43.562Z,98254.41
2023-04-08T00:48:15.502Z,98261.41
2023-04-08T00:49:47.087Z,98260.00
2023-04-08T00:51:19.459Z,98264.53
2023-04-08T00:52:51.085Z,98256.56
2023-04-08T00:54:22.936Z,98260.91
2023-04-08T00:55:54.452Z,98265.38
2023-04-08T00:57:26.029Z,98254.81
2023-04-08T00:58:58.902Z,98255.59
2023-04-08T01:00:31.496Z,98256.00
2023-04-08T01:02:19.278Z,98257.41
2023-04-08T01:04:02.627Z,98252.84
2023-04-08T01:06:01.333Z,98251.72
2023-04-08T01:07:38.297Z,98258.06
2023-04-08T01:09:12.289Z,98253.97
2023-04-08T01:10:49.708Z,98253.31
2023-04-08T01:12:28.034Z,98249.81
2023-04-08T01:14:06.485Z,98258.34
2023-04-08T01:15:41.215Z,98256.78
2023-04-08T01:17:13.072Z,98251.31
2023-04-08T01:18:45.246Z,98255.44
2023-04-08T01:20:17.649Z,98251.22
2023-04-08T01:21:49.559Z,98257.84
2023-04-08T01:23:38.898Z,98254.97
2023-04-08T01:25:23.816Z,98264.84
2023-04-08T01:26:58.105Z,98258.81
2023-04-08T01:28:31.342Z,98256.75
2023-04-08T01:30:06.588Z,98259.50
2023-04-08T01:31:41.165Z,98255.69
2023-04-08T01:33:15.436Z,98263.88
2023-04-08T01:34:47.823Z,98259.50
2023-04-08T01:36:20.672Z,98255.38
2023-04-08T01:37:54.372Z,98260.19
2023-04-08T01:39:28.801Z,98249.50
2023-04-08T01:41:00.739Z,98245.38
2023-04-08T01:42:35.121Z,98258.16
2023-04-08T01:44:06.820Z,98251.03
2023-04-08T01:45:39.132Z,98252.94
2023-04-08T01:47:13.431Z,98253.66
2023-04-08T01:48:45.925Z,98251.88
2023-04-08T01:50:17.989Z,98245.94
2023-04-08T01:51:53.676Z,98247.34
2023-04-08T01:53:25.566Z,98248.72
2023-04-08T01:54:57.287Z,98246.66
2023-04-08T01:56:32.704Z,98244.31
2023-04-08T01:58:07.187Z,98246.38
2023-04-08T01:59:41.188Z,98249.56
2023-04-08T02:01:21.028Z,98247.75
2023-04-08T02:02:56.065Z,98251.88
2023-04-08T02:04:28.299Z,98253.09
2023-04-08T02:06:01.786Z,98251.56
2023-04-08T02:07:33.398Z,98248.56
2023-04-08T02:09:05.747Z,98255.28
2023-04-08T02:10:37.420Z,98255.81
2023-04-08T02:12:09.951Z,98252.94
2023-04-08T02:13:41.906Z,98258.56
2023-04-08T02:15:14.448Z,98256.53
2023-04-08T02:17:00.738Z,98252.94
2023-04-08T02:18:35.492Z,98256.63
2023-04-08T02:20:20.968Z,98258.56
2023-04-08T02:21:57.735Z,98256.94
2023-04-08T02:23:34.298Z,98263.06
2023-04-08T02:25:10.321Z,98259.56
2023-04-08T02:26:43.260Z,98257.47
2023-04-08T02:28:17.778Z,98258.72
2023-04-08T02:29:50.136Z,98266.41
2023-04-08T02:31:22.668Z,98260.38
2023-04-08T02:32:54.514Z,98267.78
2023-04-08T02:34:26.993Z,98254.47
2023-04-08T02:35:59.942Z,98266.03
2023-04-08T02:37:32.090Z,98254.63
2023-04-08T02:39:04.128Z,98259.81
2023-04-08T02:40:35.876Z,98264.91
2023-04-08T02:42:10.778Z,98258.31
2023-04-08T02:43:43.668Z,98262.97
2023-04-08T02:45:15.491Z,98262.81
2023-04-08T02:46:47.338Z,98270.66
2023-04-08T02:48:18.965Z,98259.38
2023-04-08T02:49:53.340Z,98266.50
2023-04-08T02:51:25.046Z,98270.06
2023-04-08T02:52:56.632Z,98262.94
2023-04-08T02:54:28.325Z,98265.16
2023-04-08T02:55:59.953Z,98262.81
2023-04-08T02:57:31.494Z,98264.03
2023-04-08T02:59:06.142Z,98263.50
2023-04-08T03:00:39.727Z,98262.13
2023-04-08T03:02:11.428Z,98263.94
2023-04-08T03:03:43.201Z,98263.13
2023-04-08T03:05:16.764Z,98266.00
2023-04-08T03:06:48.341Z,98265.03
2023-04-08T03:08:20.645Z,98269.72
2023-04-08T03:09:52.768Z,98271.06
2023-04-08T03:11:24.366Z,98268.34
2023-04-08T03:12:56.127Z,98262.59
2023-04-08T03:14:27.685Z,98266.56
2023-04-08T03:15:59.270Z,98261.91
2023-04-08T03:17:33.779Z,98271.75
2023-04-08T03:19:05.649Z,98267.13
2023-04-08T03:20:37.284Z,98270.94
2023-04-08T03:22:11.769Z,98268.91
2023-04-08T03:23:43.595Z,98272.06
2023-04-08T03:25:15.497Z,98273.56
2023-04-08T03:26:47.164Z,98271.25
2023-04-08T03:28:18.722Z,98273.53
2023-04-08T03:29:50.327Z,98272.59
2023-04-08T03:31:22.197Z,98274.25
2023-04-08T03:32:53.792Z,98273.69
2023-04-08T03:34:25.782Z,98276.41
2023-04-08T03:35:57.459Z,98271.63
2023-04-08T03:37:29.077Z,98271.25
2023-04-08T03:39:00.978Z,98271.50
2023-04-08T03:40:32.533Z,98272.44
2023-04-08T03:42:04.171Z,98271.78
2023-04-08T03:43:38.010Z,98270.81
2023-04-08T03:45:09.870Z,98275.75
2023-04-08T03:46:41.486Z,98271.91
2023-04-08T03:48:13.138Z,98269.84
2023-04-08T03:49:44.719Z,98271.25
2023-04-08T03:51:16.405Z,98275.06
2023-04-08T03:52:47.995Z,98280.28
2023-04-08T03:54:19.612Z,98276.31
2023-04-08T03:55:51.240Z,98280.97
2023-04-08T03:57:22.803Z,98277.16
2023-04-08T03:58:54.394Z,98271.78
2023-04-08T04:00:25.974Z,98267.50
2023-04-08T04:01:57.638Z,98276.97
2023-04-08T04:03:29.485Z,98277.41
2023-04-08T04:05:01.209Z,98272.19
2023-04-08T04:06:32.936Z,98269.59
2023-04-08T04:08:04.867Z,98268.91
2023-04-08T04:09:36.502Z,98268.75
2023-04-08T04:11:08.173Z,98270.50
2023-04-08T04:12:39.782Z,98270.81
2023-04-08T04:14:11.525Z,98278.38
2023-04-08T04:15:43.156Z,98270.25
2023-04-08T04:17:14.874Z,98270.94
2023-04-08T04:18:46.522Z,98273.69
2023-04-08T04:20:18.828Z,98285.50
2023-04-08T04:21:50.394Z,98278.22
2023-04-08T04:23:24.366Z,98283.88
2023-04-08T04:24:55.907Z,98280.44
2023-04-08T04:26:27.488Z,98287.69
2023-04-08T04:27:59.046Z,98277.13
2023-04-08T04:29:32.952Z,98282.06
2023-04-08T04:31:05.029Z,98281.81
2023-04-08T04:32:36.802Z,98289.34
2023-04-08T04:34:08.366Z,98295.53
2023-04-08T04:35:40.959Z,98292.09
2023-04-08T04:37:12.552Z,98289.31
2023-04-08T04:38:44.699Z,98292.09
2023-04-08T04:40:16.383Z,98299.09
2023-04-08T04:41:49.450Z,98293.88
2023-04-08T04:43:21.053Z,98293.63
2023-04-08T04:44:54.078Z,98293.31
2023-04-08T04:46:25.777Z,98292.66
2023-04-08T04:47:57.358Z,98294.28
2023-04-08T04:49:29.228Z,98297.16
2023-04-08T04:51:03.149Z,98289.50
2023-04-08T04:52:36.947Z,98297.72
2023-04-08T04:54:08.642Z,98298.41
2023-04-08T04:55:40.349Z,98296.47
2023-04-08T04:57:12.116Z,98301.81
2023-04-08T04:58:43.741Z,98312.78
2023-04-08T05:00:16.411Z,98307.44
2023-04-08T05:01:47.996Z,98298.25
2023-04-08T05:03:19.948Z,98302.25
2023-04-08T05:04:53.723Z,98302.81
2023-04-08T05:06:27.128Z,98309.25
2023-04-08T05:07:59.085Z,98308.16
2023-04-08T05:09:30.832Z,98299.75
2023-04-08T05:11:02.429Z,98302.63
2023-04-08T05:12:34.084Z,98307.75
2023-04-08T05:14:05.658Z,98307.72
2023-04-08T05:15:37.398Z,98311.69
2023-04-08T05:17:09.075Z,98311.31
2023-04-08T05:18:40.637Z,98307.59
2023-04-08T05:20:12.326Z,98313.75
2023-04-08T05:21:43.980Z,98322.56
2023-04-08T05:23:15.630Z,98319.94
2023-04-08T05:24:47.209Z,98316.50
2023-04-08T05:26:23.017Z,98324.34
2023-04-08T05:27:54.747Z,98324.31
2023-04-08T05:29:26.378Z,98324.06
2023-04-08T05:30:58.024Z,98326.41
2023-04-08T05:32:30.469Z,98326.66
2023-04-08T05:34:02.126Z,98327.06
2023-04-08T05:35:33.751Z,98327.88
2023-04-08T05:37:05.492Z,98325.97
2023-04-08T05:38:37.342Z,98326.53
2023-04-08T05:40:09.421Z,98330.63
2023-04-08T05:41:40.964Z,98328.59
2023-04-08T05:43:12.530Z,98331.72
2023-04-08T05:44:44.254Z,98331.59
2023-04-08T05:46:16.127Z,98325.97
2023-04-08T05:47:47.784Z,98330.59
2023-04-08T05:49:19.404Z,98328.41
2023-04-08T05:50:51.389Z,98332.50
2023-04-08T05:52:22.966Z,98336.38
2023-04-08T05:53:54.577Z,98337.31
2023-04-08T05:55:26.294Z,98337.75
2023-04-08T05:56:57.864Z,98336.63
2023-04-08T05:58:29.490Z,98337.47
2023-04-08T06:00:01.058Z,98342.38
2023-04-08T06:01:32.656Z,98350.19
2023-04-08T06:03:04.559Z,98348.25
2023-04-08T06:04:36.667Z,98340.31
2023-04-08T06:06:14.445Z,98348.03
2023-04-08T06:07:46.227Z,98352.66
2023-04-08T06:09:17.906Z,98350.88
2023-04-08T06:10:52.545Z,98349.22
2023-04-08T06:12:24.175Z,98344.44
2023-04-08T06:13:55.788Z,98352.13
2023-04-08T06:15:28.103Z,98355.97
2023-04-08T06:16:59.851Z,98351.50
2023-04-08T06:18:31.559Z,98354.72
2023-04-08T06:20:03.731Z,98359.41
2023-04-08T06:21:35.506Z,98353.03
2023-04-08T06:23:07.091Z,98357.16
2023-04-08T06:24:38.890Z,98358.50
2023-04-08T06:26:10.615Z,98362.19
2023-04-08T06:27:42.157Z,98356.97
2023-04-08T06:29:13.760Z,98358.69
2023-04-08T06:30:45.320Z,98359.91
2023-04-08T06:32:17.121Z,98363.16
2023-04-08T06:33:48.817Z,98359.97
2023-04-08T06:35:20.538Z,98362.06
2023-04-08T06:36:52.139Z,98365.34
2023-04-08T06:38:23.796Z,98367.91
2023-04-08T06:39:55.414Z,98364.06
2023-04-08T06:41:27.039Z,98360.75
2023-04-08T06:43:07.792Z,98357.69
2023-04-08T06:44:43.420Z,98368.94
2023-04-08T06:46:15.003Z,98367.69
2023-04-08T06:47:46.890Z,98368.41
2023-04-08T06:49:18.560Z,98367.13
2023-04-08T06:50:50.113Z,98369.34
2023-04-08T06:52:21.797Z,98373.97
2023-04-08T06:53:54.491Z,98365.69
2023-04-08T06:55:26.314Z,98370.78
2023-04-08T06:56:57.893Z,98369.47
2023-04-08T06:58:30.051Z,98371.16
2023-04-08T07:00:01.722Z,98366.13
2023-04-08T07:01:33.549Z,98373.53
2023-04-08T07:03:05.261Z,98370.91
2023-04-08T07:04:36.892Z,98370.78
2023-04-08T07:06:08.509Z,98374.88
2023-04-08T07:07:40.113Z,98375.22
2023-04-08T07:09:12.154Z,98377.53
2023-04-08T07:10:43.786Z,98375.06
2023-04-08T07:12:15.668Z,98378.34
2023-04-08T07:13:47.297Z,98383.72
2023-04-08T07:15:19.095Z,98386.59
2023-04-08T07:16:50.773Z,98385.78
2023-04-08T07:18:22.513Z,98382.91
2023-04-08T07:19:54.072Z,98383.81
2023-04-08T07:21:25.877Z,98381.66
2023-04-08T07:22:57.533Z,98382.63
2023-04-08T07:24:29.177Z,98384.06
2023-04-08T07:26:05.302Z,98391.53
2023-04-08T07:27:36.965Z,98393.03
2023-04-08T07:29:08.583Z,98392.81
2023-04-08T07:30:40.306Z,98397.34
2023-04-08T07:32:11.911Z,98394.69
2023-04-08T07:33:44.193Z,98405.16
2023-04-08T07:35:19.078Z,98403.69
2023-04-08T07:36:51.079Z,98399.31
2023-04-08T07:38:22.642Z,98404.75
2023-04-08T07:39:54.400Z,98401.53
2023-04-08T07:41:26.249Z,98397.56
2023-04-08T07:42:57.930Z,98398.84
2023-04-08T07:44:29.535Z,98407.53
2023-04-08T07:46:05.071Z,98401.41
2023-04-08T07:47:37.025Z,98402.81
2023-04-08T07:49:09.723Z,98405.97
2023-04-08T07:51:08.216Z,98408.97
2023-04-08T07:52:33.171Z,98405.53
2023-04-08T07:54:05.149Z,98410.06
2023-04-08T07:55:36.923Z,98411.25
2023-04-08T07:57:08.845Z,98408.41
2023-04-08T07:58:41.281Z,98409.25
2023-04-08T08:00:20.848Z,98414.56
2023-04-08T08:01:52.586Z,98416.56
2023-04-08T08:03:24.332Z,98413.28
2023-04-08T08:04:56.154Z,98409.78
2023-04-08T08:06:27.793Z,98414.78
2023-04-08T08:07:59.399Z,98417.53
2023-04-08T08:09:32.112Z,98411.81
2023-04-08T08:11:03.798Z,98422.34
2023-04-08T08:12:35.597Z,98414.69
2023-04-08T08:14:07.968Z,98415.84
2023-04-08T08:15:39.643Z,98423.38
2023-04-08T08:17:12.726Z,98418.81
2023-04-08T08:18:44.347Z,98416.81
2023-04-08T08:20:16.783Z,98422.19
2023-04-08T08:21:48.999Z,98421.06
2023-04-08T08:23:20.524Z,98428.31
2023-04-08T08:24:58.511Z,98425.41
2023-04-08T08:26:30.143Z,98418.09
2023-04-08T08:28:02.090Z,98423.94
2023-04-08T08:29:33.760Z,98420.13
2023-04-08T08:31:06.289Z,98428.34
2023-04-08T08:32:38.006Z,98432.63
2023-04-08T08:34:09.597Z,98432.00
2023-04-08T08:35:41.207Z,98431.78
2023-04-08T08:37:12.963Z,98432.16
2023-04-08T08:38:44.555Z,98433.06
2023-04-08T08:40:16.739Z,98440.53
2023-04-08T08:41:48.562Z,98441.66
2023-04-08T08:43:20.332Z,98434.03
2023-04-08T08:44:52.304Z,98441.59
2023-04-08T08:46:23.967Z,98444.50
2023-04-08T08:47:56.808Z,98443.97
2023-04-08T08:49:28.444Z,98445.16
2023-04-08T08:51:00.631Z,98442.19
2023-04-08T08:52:32.241Z,98435.03
2023-04-08T08:54:04.455Z,98443.19
2023-04-08T08:56:00.282Z,98438.22
2023-04-08T08:57:27.729Z,98438.00
2023-04-08T08:58:59.358Z,98443.97
2023-04-08T09:00:35.812Z,98441.03
2023-04-08T09:02:24.151Z,98442.06
2023-04-08T09:04:16.708Z,98443.06
2023-04-08T09:06:00.281Z,98443.59
2023-04-08T09:07:36.349Z,98437.53
2023-04-08T09:09:11.578Z,98440.00
2023-04-08T09:10:43.230Z,98446.88
2023-04-08T09:12:16.481Z,98440.19
2023-04-08T09:13:49.573Z,98444.41
2023-04-08T09:15:21.423Z,98447.53
2023-04-08T09:16:53.595Z,98448.84
2023-04-08T09:18:25.280Z,98451.63
2023-04-08T09:20:15.293Z,98454.88
2023-04-08T09:22:04.547Z,98453.06
2023-04-08T09:23:47.303Z,98447.81
2023-04-08T09:25:24.160Z,98453.63
2023-04-08T09:26:56.570Z,98457.06
2023-04-08T09:28:28.532Z,98462.84
2023-04-08T09:30:14.201Z,98454.16
2023-04-08T09:31:47.328Z,98452.28
2023-04-08T09:33:19.052Z,98454.63
2023-04-08T09:34:50.992Z,98456.44
2023-04-08T09:36:23.347Z,98457.16
2023-04-08T09:37:55.036Z,98461.72
2023-04-08T09:39:26.681Z,98452.19
2023-04-08T09:40:59.172Z,98465.53
2023-04-08T09:42:32.204Z,98444.03
2023-04-08T09:44:06.542Z,98453.53
2023-04-08T09:45:42.729Z,98452.56
2023-04-08T09:47:22.590Z,98452.09
2023-04-08T09:49:07.637Z,98454.72
2023-04-08T09:50:50.427Z,98456.22
2023-04-08T09:52:30.585Z,98444.38
2023-04-08T09:54:06.736Z,98446.50
2023-04-08T09:55:39.340Z,98454.03
2023-04-08T09:57:16.540Z,98452.47
2023-04-08T09:59:07.922Z,98447.00
2023-04-08T10:00:50.546Z,98450.03
2023-04-08T10:02:29.512Z,98448.38
2023-04-08T10:04:08.651Z,98458.69
2023-04-08T10:05:42.257Z,98451.88
2023-04-08T10:07:14.976Z,98453.28
2023-04-08T10:08:46.575Z,98448.94
2023-04-08T10:10:18.812Z,98443.72
2023-04-08T10:11:50.993Z,98444.94
2023-04-08T10:13:23.455Z,98446.97
2023-04-08T10:15:28.510Z,98452.19
2023-04-08T10:17:36.514Z,98446.16
2023-04-08T10:19:44.544Z,98445.91
2023-04-08T10:21:32.185Z,98446.69
2023-04-08T10:23:04.853Z,98439.56
2023-04-08T10:24:36.367Z,98446.16
2023-04-08T10:26:31.842Z,98443.13
2023-04-08T10:28:16.255Z,98440.69
2023-04-08T10:29:48.460Z,98431.69
2023-04-08T10:31:22.952Z,98435.34
2023-04-08T10:33:00.018Z,98435.34
2023-04-08T10:34:32.170Z,98444.72
2023-04-08T10:36:11.300Z,98433.25
2023-04-08T10:37:44.050Z,98435.97
2023-04-08T10:39:16.660Z,98433.03
2023-04-08T10:40:49.048Z,98429.06
2023-04-08T10:42:26.769Z,98434.19
2023-04-08T10:43:58.319Z,98439.19
2023-04-08T10:45:29.964Z,98435.88
2023-04-08T10:47:01.869Z,98430.44
2023-04-08T10:48:33.522Z,98432.69
2023-04-08T10:50:15.824Z,98434.81
2023-04-08T10:51:47.895Z,98435.59
2023-04-08T10:53:33.579Z,98438.97
2023-04-08T10:55:05.993Z,98431.50
2023-04-08T10:56:45.670Z,98436.25
2023-04-08T10:58:17.512Z,98433.72
2023-04-08T10:59:49.207Z,98428.97
2023-04-08T11:01:21.376Z,98438.31
2023-04-08T11:02:53.271Z,98429.94
2023-04-08T11:04:25.863Z,98427.72
2023-04-08T11:05:58.524Z,98428.03
2023-04-08T11:07:30.181Z,98426.72
2023-04-08T11:09:04.146Z,98424.88
2023-04-08T11:10:39.487Z,98433.78
2023-04-08T11:12:11.504Z,98434.91
2023-04-08T11:13:52.984Z,98431.72
2023-04-08T11:15:25.558Z,98433.59
2023-04-08T11:16:57.638Z,98430.84
2023-04-08T11:18:30.437Z,98428.53
2023-04-08T11:20:06.270Z,98425.63
2023-04-08T11:21:38.534Z,98426.72
2023-04-08T11:23:17.243Z,98429.44
2023-04-08T11:24:49.716Z,98432.22
2023-04-08T11:26:21.869Z,98427.72
2023-04-08T11:27:53.900Z,98435.31
2023-04-08T11:29:25.591Z,98431.47
2023-04-08T11:30:58.109Z,98428.09
2023-04-08T11:32:30.248Z,98425.50
2023-04-08T11:34:01.798Z,98425.31
2023-04-08T11:35:34.453Z,98427.19
2023-04-08T11:37:06.834Z,98425.41
2023-04-08T11:38:41.792Z,98424.91
2023-04-08T11:40:13.834Z,98428.53
2023-04-08T11:41:45.464Z,98435.94
2023-04-08T11:43:17.094Z,98437.66
2023-04-08T11:44:48.731Z,98434.81
2023-04-08T11:46:20.565Z,98430.69
2023-04-08T11:47:53.100Z,98429.88
2023-04-08T11:49:24.848Z,98427.56
2023-04-08T11:51:04.701Z,98435.13
2023-04-08T11:52:49.233Z,98434.00
2023-04-08T11:54:42.634Z,98431.19
2023-04-08T11:56:23.901Z,98435.97
2023-04-08T11:57:57.764Z,98430.28
2023-04-08T11:59:29.906Z,98429.75
2023-04-08T12:01:02.121Z,98431.06
2023-04-08T12:02:33.997Z,98439.63
2023-04-08T12:04:06.889Z,98438.00
2023-04-08T12:05:38.691Z,98433.88
2023-04-08T12:07:10.950Z,98445.06
2023-04-08T12:08:42.522Z,98438.34
2023-04-08T12:10:14.196Z,98433.88
2023-04-08T12:11:46.036Z,98440.78
2023-04-08T12:13:17.592Z,98438.00
2023-04-08T12:14:49.399Z,98443.28
2023-04-08T12:16:21.332Z,98443.75
2023-04-08T12:17:53.098Z,98443.91
2023-04-08T12:19:24.911Z,98441.25
2023-04-08T12:20:56.462Z,98443.41
2023-04-08T12:22:28.114Z,98444.03
2023-04-08T12:23:59.915Z,98447.03
2023-04-08T12:25:31.510Z,98443.72
2023-04-08T12:27:04.745Z,98451.56
2023-04-08T12:28:36.508Z,98455.81
2023-04-08T12:30:08.797Z,98447.47
2023-04-08T12:31:40.602Z,98447.47
2023-04-08T12:33:12.228Z,98439.59
2023-04-08T12:34:43.827Z,98451.75
2023-04-08T12:36:15.504Z,98450.78
2023-04-08T12:37:47.174Z,98446.22
2023-04-08T12:39:18.966Z,98444.22
2023-04-08T12:40:50.715Z,98449.16
2023-04-08T12:42:22.278Z,98443.09
2023-04-08T12:43:53.848Z,98440.59
2023-04-08T12:45:25.414Z,98447.03
2023-04-08T12:47:00.122Z,98441.28
2023-04-08T12:48:32.098Z,98445.38
2023-04-08T12:50:04.069Z,98440.59
2023-04-08T12:51:36.084Z,98445.84
2023-04-08T12:53:07.806Z,98449.97
2023-04-08T12:54:39.399Z,98450.91
2023-04-08T12:56:11.041Z,98441.75
2023-04-08T12:57:42.693Z,98440.28
2023-04-08T12:59:14.623Z,98443.56
2023-04-08T13:00:46.701Z,98440.47
2023-04-08T13:02:18.476Z,98446.88
2023-04-08T13:03:50.246Z,98448.31
2023-04-08T13:05:32.827Z,98447.19
2023-04-08T13:07:13.612Z,98440.28
2023-04-08T13:08:45.113Z,98439.94
2023-04-08T13:10:16.720Z,98445.38
2023-04-08T13:11:48.433Z,98451.47
2023-04-08T13:13:20.005Z,98445.41
2023-04-08T13:14:51.601Z,98443.75
2023-04-08T13:16:23.249Z,98443.75
2023-04-08T13:17:55.125Z,98436.84
2023-04-08T13:19:27.117Z,98442.25
2023-04-08T13:20:58.789Z,98436.03
2023-04-08T13:22:30.334Z,98437.19
2023-04-08T13:24:02.195Z,98435.53
2023-04-08T13:25:33.775Z,98438.84
2023-04-08T13:27:05.469Z,98437.66
2023-04-08T13:28:46.668Z,98444.88
2023-04-08T13:30:27.905Z,98444.72
2023-04-08T13:31:59.589Z,98439.31
2023-04-08T13:33:31.290Z,98446.84
2023-04-08T13:35:03.237Z,98450.94
2023-04-08T13:36:34.814Z,98449.94
2023-04-08T13:38:06.763Z,98448.09
2023-04-08T13:39:38.275Z,98443.84
2023-04-08T13:41:09.838Z,98448.63
2023-04-08T13:42:41.646Z,98448.09
2023-04-08T13:44:13.198Z,98441.69
2023-04-08T13:45:44.803Z,98448.91
2023-04-08T13:47:16.528Z,98458.09
2023-04-08T13:48:48.205Z,98454.66
2023-04-08T13:50:20.089Z,98449.72
2023-04-08T13:51:51.967Z,98446.91
2023-04-08T13:53:23.589Z,98448.41
2023-04-08T13:54:55.673Z,98451.06
2023-04-08T13:56:27.309Z,98453.53
2023-04-08T13:57:58.853Z,98457.78
2023-04-08T13:59:30.466Z,98447.09
2023-04-08T14:01:02.739Z,98452.53
2023-04-08T14:02:34.485Z,98450.91
2023-04-08T14:04:06.775Z,98457.16
2023-04-08T14:05:38.615Z,98446.88
2023-04-08T14:07:10.562Z,98450.81
2023-04-08T14:08:45.873Z,98453.91
2023-04-08T14:10:17.540Z,98450.81
2023-04-08T14:11:51.826Z,98451.34
2023-04-08T14:13:23.976Z,98440.16
2023-04-08T14:14:55.851Z,98445.91
2023-04-08T14:16:29.752Z,98439.84
2023-04-08T14:18:01.733Z,98440.19
2023-04-08T14:19:33.483Z,98447.91
2023-04-08T14:21:05.800Z,98455.16
2023-04-08T14:22:37.584Z,98451.88
2023-04-08T14:24:09.390Z,98450.91
2023-04-08T14:25:41.219Z,98443.91
2023-04-08T14:27:13.018Z,98455.78
2023-04-08T14:28:45.253Z,98457.13
2023-04-08T14:30:17.022Z,98448.78
2023-04-08T14:31:48.764Z,98446.97
2023-04-08T14:33:20.482Z,98456.78
2023-04-08T14:34:52.212Z,98459.38
2023-04-08T14:36:27.207Z,98455.59
2023-04-08T14:37:59.097Z,98454.50
2023-04-08T14:39:30.876Z,98457.63
2023-04-08T14:41:02.724Z,98452.84
2023-04-08T14:42:35.061Z,98456.16
2023-04-08T14:44:06.798Z,98451.53
2023-04-08T14:45:38.479Z,98456.50
2023-04-08T14:47:10.620Z,98454.53
2023-04-08T14:48:47.454Z,98460.59
2023-04-08T14:50:19.672Z,98456.31
2023-04-08T14:51:53.245Z,98454.16
2023-04-08T14:53:25.438Z,98456.59
2023-04-08T14:54:57.416Z,98452.19
2023-04-08T14:56:29.254Z,98451.91
2023-04-08T14:58:01.324Z,98454.19
2023-04-08T14:59:33.213Z,98452.84
2023-04-08T15:01:04.975Z,98451.19
2023-04-08T15:02:36.812Z,98452.13
2023-04-08T15:04:08.781Z,98459.22
2023-04-08T15:05:40.594Z,98454.53
2023-04-08T15:07:12.813Z,98453.06
2023-04-08T15:08:45.763Z,98454.03
2023-04-08T15:10:17.675Z,98458.78
2023-04-08T15:11:49.389Z,98459.78
2023-04-08T15:13:21.191Z,98458.13
2023-04-08T15:14:52.837Z,98458.94
2023-04-08T15:16:24.940Z,98461.38
2023-04-08T15:17:56.603Z,98463.03
2023-04-08T15:19:28.287Z,98463.97
2023-04-08T15:20:59.976Z,98462.44
2023-04-08T15:22:32.701Z,98462.09
2023-04-08T15:24:04.361Z,98458.69
2023-04-08T15:25:36.137Z,98456.59
2023-04-08T15:27:08.006Z,98462.53
2023-04-08T15:28:40.827Z,98458.09
2023-04-08T15:30:12.993Z,98459.22
2023-04-08T15:31:44.661Z,98464.03
2023-04-08T15:33:16.501Z,98463.00
2023-04-08T15:34:48.403Z,98462.38
2023-04-08T15:36:20.065Z,98462.34
2023-04-08T15:37:51.984Z,98465.78
2023-04-08T15:39:24.066Z,98461.66
2023-04-08T15:40:55.976Z,98459.59
2023-04-08T15:42:27.630Z,98456.66
2023-04-08T15:43:59.314Z,98461.53
2023-04-08T15:45:31.718Z,98462.69
2023-04-08T15:47:03.485Z,98461.19
2023-04-08T15:48:35.290Z,98465.44
2023-04-08T15:50:07.426Z,98465.13
2023-04-08T15:51:41.327Z,98462.41
2023-04-08T15:53:13.073Z,98465.56
2023-04-08T15:54:44.754Z,98472.25
2023-04-08T15:56:18.067Z,98473.81
2023-04-08T15:57:49.902Z,98469.66
2023-04-08T15:59:21.589Z,98475.25
2023-04-08T16:00:55.652Z,98477.88
2023-04-08T16:02:27.966Z,98479.31
2023-04-08T16:04:01.138Z,98485.25
2023-04-08T16:05:36.003Z,98477.91
2023-04-08T16:07:10.575Z,98475.09
2023-04-08T16:08:43.485Z,98482.31
2023-04-08T16:10:15.551Z,98484.22
2023-04-08T16:11:47.231Z,98489.41
2023-04-08T16:13:18.854Z,98491.41
2023-04-08T16:14:51.187Z,98490.69
2023-04-08T16:16:22.883Z,98488.94
2023-04-08T16:17:54.758Z,98496.63
2023-04-08T16:19:27.292Z,98490.38
2023-04-08T16:20:59.129Z,98499.34
2023-04-08T16:22:31.048Z,98502.81
2023-04-08T16:24:02.818Z,98489.06
2023-04-08T16:25:34.482Z,98501.16
2023-04-08T16:27:06.701Z,98501.50
2023-04-08T16:28:39.974Z,98497.00
2023-04-08T16:30:12.061Z,98495.03
2023-04-08T16:31:43.713Z,98502.59
2023-04-08T16:33:16.018Z,98500.13
2023-04-08T16:34:47.665Z,98498.78
2023-04-08T16:36:20.210Z,98500.69
2023-04-08T16:37:51.896Z,98501.19
2023-04-08T16:39:23.559Z,98502.34
2023-04-08T16:40:58.448Z,98502.94
2023-04-08T16:42:30.560Z,98500.59
2023-04-08T16:44:02.209Z,98512.63
2023-04-08T16:45:33.980Z,98505.00
2023-04-08T16:47:05.868Z,98507.78
2023-04-08T16:48:39.079Z,98511.16
2023-04-08T16:50:11.668Z,98516.88
2023-04-08T16:51:43.325Z,98514.94
2023-04-08T16:53:15.135Z,98529.16
2023-04-08T16:54:46.863Z,98523.97
2023-04-08T16:56:18.831Z,98516.28
2023-04-08T16:57:50.576Z,98525.56
2023-04-08T16:59:22.279Z,98526.59
2023-04-08T17:00:54.052Z,98531.63
2023-04-08T17:02:26.055Z,98525.72
2023-04-08T17:03:58.018Z,98529.94
2023-04-08T17:05:29.933Z,98528.66
2023-04-08T17:07:01.717Z,98537.47
2023-04-08T17:08:33.566Z,98532.84
2023-04-08T17:10:06.520Z,98528.34
2023-04-08T17:11:38.710Z,98532.91
2023-04-08T17:13:11.990Z,98535.84
2023-04-08T17:14:44.635Z,98539.59
2023-04-08T17:16:17.598Z,98533.38
2023-04-08T17:17:49.524Z,98529.94
2023-04-08T17:19:21.398Z,98540.72
2023-04-08T17:20:53.572Z,98536.34
2023-04-08T17:22:28.188Z,98541.69
2023-04-08T17:23:59.886Z,98538.84
2023-04-08T17:25:31.487Z,98542.13
2023-04-08T17:27:03.247Z,98540.94
2023-04-08T17:28:35.281Z,98539.66
2023-04-08T17:30:08.912Z,98542.44
2023-04-08T17:31:41.801Z,98537.22
2023-04-08T17:33:14.231Z,98542.66
2023-04-08T17:34:46.091Z,98547.19
2023-04-08T17:36:17.935Z,98549.91
2023-04-08T17:37:50.298Z,98547.19
2023-04-08T17:39:21.943Z,98548.13
2023-04-08T17:40:53.731Z,98543.47
2023-04-08T17:42:26.394Z,98547.06
2023-04-08T17:43:58.019Z,98548.63
2023-04-08T17:45:29.923Z,98556.09
2023-04-08T17:47:01.784Z,98559.09
2023-04-08T17:48:33.540Z,98558.78
2023-04-08T17:50:05.946Z,98556.59
2023-04-08T17:51:37.562Z,98561.88
2023-04-08T17:53:09.298Z,98558.66
2023-04-08T17:54:41.462Z,98563.06
2023-04-08T17:56:13.486Z,98566.63
2023-04-08T17:57:45.223Z,98568.00
2023-04-08T17:59:16.937Z,98563.19
2023-04-08T18:00:49.489Z,98567.09
2023-04-08T18:02:21.288Z,98578.69
2023-04-08T18:03:53.357Z,98571.25
2023-04-08T18:05:25.287Z,98571.25
2023-04-08T18:06:57.205Z,98572.59
2023-04-08T18:08:28.820Z,98574.72
2023-04-08T18:10:00.578Z,98570.41
2023-04-08T18:11:32.376Z,98576.00
2023-04-08T18:14:39.529Z,98587.44
2023-04-08T18:16:18.836Z,98585.41